Conway, MA (01341)

12:13 AM EDT on May 24, 2015 (GMT -0400)
Plain Road East | | Change Station
CLOSE
Current Station
Personal Weather Station
Location: South Deerfield, MA
Elevation: 223 ft
Nearby Weather Stations
Active Advisory: Special Statement

Elev 223 ft 42.50 °N, 72.61 °W | Updated 9 minutes ago

Clear
Clear
39.8 °F
Feels Like 40 °F
N
0.0
Wind Variable Wind from North
Gusts 0.0 mph

Today
High -- | Low -- °F
--% Chance of Precip.
Yesterday
High -- | Low -- °F
Precip. -- in
5:21 AM 8:14 PM
Waxing Crescent, 35% visible
Pressure 30.30 in
Visibility 10.0 miles
Clouds Clear
Windchill 40 °F
Dew Point 34 °F
Humidity 81%
Rainfall -999.00 in
Snow Depth Not available.
UV 0 out of 12
Pollen 9.00 out of 12
Air Quality Not available.
Flu Activity Local Activity
METAR KORE 240352Z AUTO 00000KT 10SM CLR 04/01 A3029 RMK AO2 SLP261 T00390006

More Conditions Fewer Conditions

Pressure 30.30 in
Visibility 10.0 miles
Clouds Clear
Windchill 40 °F
Dew Point 34 °F
Humidity 81%
Rainfall -999.00 in
Snow Depth Not available.
UV 0 out of 12
Pollen 9.00 out of 12
Air Quality Not available.
Flu Activity Local Activity
METAR KORE 240352Z AUTO 00000KT 10SM CLR 04/01 A3029 RMK AO2 SLP261 T00390006

More Conditions Fewer Conditions

10-Day Weather Forecast

Almanac

Astronomy

May. 24, 2015 Rise Set
Actual Time
Civil Twilight
Nautical Twilight
Astronomical Twilight
Moon
Length of Visible Light
Length of Day
Tomorrow will be .
, % of the Moon is Illuminated

Today's Extremes

State Highs State Lows

Community

WunderPhotos

Upload Photos

1,823,687 photos uploaded!

WunderBlogs® & News

Nearby

Air Quality

  Air Quality AQ Index Pollutant
Not available.

Snow Depth

Station Depth Elevation

Earthquake Activity

City Distance Mag. Time & Date
Minimum magnitude displayed is 2.5.

Coastal Water Temperatures

Place Temperature

Stations

Nearby Weather Stations

Station Location Temp. Windchill Dew Point Humidity Wind Precip. Elev Updated Type
                   
Special Statement
Statement as of 3:56 PM EDT on May 23, 2015

... Elevated fire weather risk for Sunday...

Dry air remains across the region with minimum relative
humidities of 20 to 30 percent expected for late Sunday morning
into Sunday afternoon. Southwest winds will become gusty... mainly
across central and eastern areas... upwards to 20 to 25 mph.
Also... there continues to be a lack of significant rainfall across
the region... which dates back a few weeks.

With these factors in place... local fire officials have advised
that there is an elevated fire spread potential for Sunday across
much of southern New England away from the South Coast.

Relative humidities will be higher along the south coasts of
Massachusetts and Rhode Island as well as Cape Cod and the islands
with the southwest winds bringing higher dewpoints... so the fire
weather risk is lower there.


Evt